< < Back
Terminal Aerodrome Forecast


Current Version              Previous Versions:   1  2  3  4  5  6  7  8  9  

Terminal Aerodrome Forecast

996
FTUS42 KGSP 022323
TAFAVL
TAF
KAVL 022323Z 0300/0324 VRB03KT P6SM BKN070
      TEMPO 0310/0312 5SM BR SCT004=



Latest METAR

909
SAUS70 KWBC 032000 RRJ
MTRAVL
METAR KAVL 031954Z AUTO 34010G15KT 10SM FEW060 31/13 A3003 RMK AO2
SLP137 T03110128


USA.gov is the U.S. government's official web portal to all federal, state and local government web resources and services.